Time;durP1;ratioP1;P1;durP2;ratioP2;P2;SDS_P1;SDS_P2;PMS_P1;PMS_P2;Temp;Humidity;BMP_temperature;BMP_pressure;BME280_temperature;BME280_humidity;BME280_pressure;Samples;Min_cycle;Max_cycle;Signal;HPM_P1;HPM_P2
2023/09/16 00:06:50;;;;;;;;;15.67;14.67;;;;;23.69;58.88;100322.94;6239879;22;45987;-81
2023/09/16 00:09:16;;;;;;;;;13.67;12.00;;;;;23.48;59.98;100349.25;6241033;22;44866;-80
2023/09/16 00:11:42;;;;;;;;;11.00;10.67;;;;;23.37;60.45;100341.63;6266033;22;45108;-82
2023/09/16 00:14:07;;;;;;;;;13.67;12.33;;;;;23.32;60.84;100340.94;6267480;22;45196;-82
2023/09/16 00:16:32;;;;;;;;;14.00;12.33;;;;;23.39;61.13;100353.28;6265678;22;47228;-82
2023/09/16 00:18:58;;;;;;;;;12.33;10.00;;;;;23.31;60.87;100353.63;6264421;22;44796;-82
2023/09/16 00:21:25;;;;;;;;;16.33;13.67;;;;;23.37;61.26;100355.19;6264486;22;45054;-81
2023/09/16 00:23:52;;;;;;;;;14.00;12.33;;;;;23.40;61.33;100348.75;6265878;22;44741;-81
2023/09/16 00:28:54;;;;;;;;;11.33;11.33;;;;;23.29;61.88;100339.25;6251572;22;45022;-82
2023/09/16 00:31:19;;;;;;;;;10.00;10.00;;;;;23.30;61.92;100346.44;6266438;22;44729;-82
2023/09/16 00:33:46;;;;;;;;;15.00;15.00;;;;;23.23;62.07;100336.81;6240399;22;44719;-82
2023/09/16 00:36:27;;;;;;;;;10.33;9.67;;;;;23.39;62.16;100349.66;6265043;22;47133;-82
2023/09/16 00:38:53;;;;;;;;;15.00;15.00;;;;;23.22;62.50;100345.88;6259472;22;44762;-81
2023/09/16 00:41:18;;;;;;;;;13.00;12.33;;;;;23.13;62.30;100325.50;6245801;22;44747;-81
2023/09/16 00:43:44;;;;;;;;;13.67;11.67;;;;;23.17;62.67;100331.66;6243383;22;45328;-81
2023/09/16 00:46:11;;;;;;;;;14.33;13.67;;;;;23.28;63.13;100334.75;6242062;22;47094;-82
2023/09/16 00:48:38;;;;;;;;;15.33;13.00;;;;;23.16;62.91;100336.19;6243304;22;45400;-82
2023/09/16 00:51:06;;;;;;;;;12.00;12.00;;;;;23.20;63.08;100331.50;6243198;22;45369;-82
2023/09/16 00:53:32;;;;;;;;;13.33;12.67;;;;;23.10;62.56;100332.88;6242577;22;45448;-82
2023/09/16 00:55:57;;;;;;;;;15.00;14.67;;;;;23.06;62.83;100328.53;6242180;22;48141;-82
2023/09/16 00:58:25;;;;;;;;;19.67;16.33;;;;;23.13;62.45;100321.91;6250781;22;45442;-81
2023/09/16 01:03:26;;;;;;;;;11.67;10.67;;;;;23.03;62.98;100331.41;6347378;22;44711;-79
2023/09/16 01:05:54;;;;;;;;;17.00;15.00;;;;;23.01;63.72;100317.00;6334741;22;46025;-79
2023/09/16 01:08:20;;;;;;;;;10.00;10.00;;;;;22.85;63.06;100309.53;6331833;22;44818;-81
2023/09/16 01:10:46;;;;;;;;;12.00;11.33;;;;;22.89;62.79;100327.41;6333768;22;44779;-82
2023/09/16 01:13:12;;;;;;;;;12.33;12.00;;;;;22.93;62.83;100326.34;6308452;22;44775;-81
2023/09/16 01:18:29;;;;;;;;;11.33;11.33;;;;;22.99;64.10;100321.59;6227144;22;44920;-82
2023/09/16 01:31:16;;;;;;;;;17.67;15.67;;;;;22.72;65.59;100319.13;6158037;22;45046;-82
2023/09/16 01:33:50;;;;;;;;;13.00;12.67;;;;;22.79;65.76;100322.47;6238231;22;44841;-82
2023/09/16 01:36:20;;;;;;;;;13.67;13.00;;;;;22.76;66.29;100318.03;6158710;22;45289;-82
2023/09/16 01:38:49;;;;;;;;;11.33;11.33;;;;;22.72;66.96;100321.84;6262723;22;45255;-81
2023/09/16 01:41:19;;;;;;;;;15.67;15.67;;;;;22.67;66.86;100318.47;6262013;22;44757;-82
2023/09/16 01:43:45;;;;;;;;;14.00;14.00;;;;;22.55;67.24;100315.31;6262051;22;44803;-83
2023/09/16 01:46:10;;;;;;;;;12.33;12.00;;;;;22.54;67.10;100310.84;6262778;22;46833;-83
2023/09/16 01:48:36;;;;;;;;;14.00;14.00;;;;;22.49;67.57;100310.16;6155815;22;45370;-82
2023/09/16 01:51:02;;;;;;;;;14.33;14.33;;;;;22.46;67.84;100303.97;6127353;22;44800;-82
2023/09/16 01:53:27;;;;;;;;;12.33;12.33;;;;;22.43;68.51;100313.13;6258037;22;45517;-82
2023/09/16 01:55:59;;;;;;;;;13.00;13.00;;;;;22.39;68.37;100311.47;6256677;22;47057;-82
2023/09/16 01:58:26;;;;;;;;;14.00;12.67;;;;;22.35;68.51;100299.88;6255477;22;45399;-82
2023/09/16 02:00:53;;;;;;;;;12.67;11.67;;;;;22.37;68.26;100298.00;6282975;22;45382;-82
2023/09/16 02:03:18;;;;;;;;;16.33;16.33;;;;;22.32;68.79;100294.63;6257827;22;45334;-83
2023/09/16 02:05:44;;;;;;;;;12.33;12.33;;;;;22.32;68.70;100288.31;6154127;22;46026;-82
2023/09/16 02:08:10;;;;;;;;;13.33;13.33;;;;;22.28;69.05;100286.66;6260844;22;45011;-83
2023/09/16 02:10:36;;;;;;;;;11.00;11.00;;;;;22.28;68.63;100297.50;6157457;22;44748;-83
2023/09/16 02:13:01;;;;;;;;;14.00;12.33;;;;;22.25;69.06;100284.97;6237652;22;44805;-83
2023/09/16 02:15:28;;;;;;;;;14.67;13.67;;;;;22.34;69.16;100289.13;6157609;22;45231;-81
2023/09/16 02:17:53;;;;;;;;;11.33;11.33;;;;;22.20;69.55;100283.34;6268557;22;44742;-83
2023/09/16 02:20:19;;;;;;;;;13.67;11.67;;;;;22.19;69.31;100287.88;6176518;22;44672;-81
2023/09/16 02:22:44;;;;;;;;;17.33;16.33;;;;;22.20;69.97;100286.06;6174542;22;44748;-84
2023/09/16 02:25:10;;;;;;;;;13.00;13.00;;;;;22.18;69.94;100287.03;6173217;22;45610;-82
2023/09/16 02:27:36;;;;;;;;;11.33;11.33;;;;;22.16;70.21;100278.06;6173684;22;44704;-84
2023/09/16 02:30:05;;;;;;;;;14.67;13.67;;;;;22.30;70.34;100279.34;6275581;22;44747;-82
2023/09/16 02:32:31;;;;;;;;;14.67;14.00;;;;;22.13;70.27;100272.78;6256944;22;45490;-82
2023/09/16 02:34:57;;;;;;;;;14.67;14.67;;;;;22.15;70.44;100276.28;6152055;22;45352;-81
2023/09/16 02:37:30;;;;;;;;;13.00;11.33;;;;;22.38;69.74;100274.50;6256467;22;45301;-81
2023/09/16 02:39:55;;;;;;;;;12.00;12.00;;;;;22.22;69.89;100266.13;6257241;22;45425;-81
2023/09/16 02:42:21;;;;;;;;;12.00;12.00;;;;;22.22;69.66;100271.53;6258982;22;44893;-81
2023/09/16 02:44:47;;;;;;;;;14.00;14.00;;;;;22.23;69.68;100269.69;6155460;22;44943;-81
2023/09/16 02:47:13;;;;;;;;;13.00;13.00;;;;;22.20;69.81;100256.25;6259169;22;45206;-82
2023/09/16 02:49:39;;;;;;;;;13.00;13.00;;;;;22.19;69.89;100271.63;6166379;22;45619;-80
2023/09/16 02:52:04;;;;;;;;;16.67;14.33;;;;;22.12;69.86;100262.91;6174682;22;44807;-80
2023/09/16 02:54:30;;;;;;;;;14.00;14.00;;;;;22.11;70.37;100271.94;6175583;22;45125;-81
2023/09/16 02:56:57;;;;;;;;;16.00;15.33;;;;;22.12;70.53;100272.84;6167054;22;44645;-82
2023/09/16 02:59:22;;;;;;;;;14.67;13.00;;;;;22.14;70.35;100271.84;6261721;22;44820;-82
2023/09/16 03:01:47;;;;;;;;;12.33;12.33;;;;;22.11;70.25;100271.94;6261585;22;45221;-82
2023/09/16 03:04:14;;;;;;;;;16.33;14.33;;;;;22.17;70.41;100277.13;6157551;22;45298;-82
2023/09/16 03:06:39;;;;;;;;;12.00;12.00;;;;;22.04;70.40;100262.34;6157118;22;44792;-82
2023/09/16 03:09:04;;;;;;;;;14.00;14.00;;;;;22.08;70.88;100282.94;6157470;23;44870;-81
2023/09/16 03:11:30;;;;;;;;;13.00;11.67;;;;;22.06;70.84;100265.84;6260413;22;45420;-82
2023/09/16 03:13:55;;;;;;;;;13.00;12.33;;;;;22.06;70.43;100265.84;6278085;22;47113;-81
2023/09/16 03:16:22;;;;;;;;;10.33;10.33;;;;;22.13;71.10;100267.34;6262081;22;45359;-81
2023/09/16 03:18:49;;;;;;;;;13.33;12.33;;;;;22.05;71.00;100263.22;6228285;22;45379;-81
2023/09/16 03:21:16;;;;;;;;;15.33;14.33;;;;;22.03;70.94;100265.09;6153783;22;45217;-82
2023/09/16 03:23:42;;;;;;;;;13.33;13.33;;;;;21.96;71.12;100269.88;6280369;22;47977;-82
2023/09/16 03:26:10;;;;;;;;;14.67;14.67;;;;;21.94;71.50;100274.50;6173115;22;44710;-81
2023/09/16 03:28:37;;;;;;;;;13.33;12.33;;;;;21.88;71.59;100266.63;6280604;22;44783;-83
2023/09/16 03:31:03;;;;;;;;;16.67;15.00;;;;;21.82;71.20;100266.88;6170822;22;44847;-83
2023/09/16 03:33:28;;;;;;;;;15.33;15.33;;;;;21.81;71.23;100256.97;6275140;22;59877;-84
2023/09/16 03:35:54;;;;;;;;;12.67;11.67;;;;;21.78;71.79;100255.28;6274512;22;44760;-83
2023/09/16 03:38:19;;;;;;;;;13.00;13.00;;;;;21.74;71.83;100249.09;6171395;22;44647;-83
2023/09/16 03:40:45;;;;;;;;;14.00;14.00;;;;;21.67;72.20;100250.28;6276297;22;44834;-83
2023/09/16 03:43:10;;;;;;;;;16.00;16.00;;;;;21.69;72.59;100255.63;6274404;22;47134;-83
2023/09/16 03:45:35;;;;;;;;;15.00;15.00;;;;;21.71;72.15;100257.34;6274171;22;44932;-84
2023/09/16 03:48:01;;;;;;;;;14.00;12.00;;;;;21.70;72.47;100249.28;6170344;22;44811;-83
2023/09/16 03:50:27;;;;;;;;;12.67;12.00;;;;;21.69;72.44;100243.00;6275451;22;44820;-84
2023/09/16 03:52:53;;;;;;;;;18.67;17.00;;;;;21.67;72.71;100249.38;6171238;22;44891;-83
2023/09/16 03:55:19;;;;;;;;;12.00;12.00;;;;;21.61;72.72;100245.09;6275503;22;44784;-83
2023/09/16 03:57:44;;;;;;;;;16.00;14.00;;;;;21.61;72.85;100253.22;6274559;22;44768;-84
2023/09/16 04:00:10;;;;;;;;;18.00;17.00;;;;;21.57;73.20;100251.56;6273322;22;44870;-83
2023/09/16 04:02:38;;;;;;;;;15.00;13.67;;;;;21.50;73.12;100247.34;6169499;23;45128;-81
2023/09/16 04:05:04;;;;;;;;;15.67;14.00;;;;;21.44;73.29;100231.38;6275409;22;44875;-84
2023/09/16 04:07:30;;;;;;;;;14.67;12.00;;;;;21.40;73.76;100227.84;6274117;22;44705;-82
2023/09/16 04:09:56;;;;;;;;;12.33;12.33;;;;;21.37;73.67;100228.88;6169569;22;44744;-84
2023/09/16 04:12:22;;;;;;;;;14.67;13.67;;;;;21.39;74.02;100234.22;6275304;22;47434;-80
2023/09/16 04:14:47;;;;;;;;;11.00;11.00;;;;;21.70;72.87;100246.56;6170019;22;44743;-83
2023/09/16 04:17:14;;;;;;;;;15.33;13.33;;;;;21.90;72.27;100229.53;6170201;23;45146;-83
2023/09/16 04:19:39;;;;;;;;;13.00;10.67;;;;;21.75;71.92;100210.28;6170280;23;44789;-81
2023/09/16 04:22:04;;;;;;;;;14.67;12.00;;;;;21.86;71.66;100220.66;6274339;22;46865;-80
2023/09/16 04:24:30;;;;;;;;;9.33;9.33;;;;;21.90;71.72;100221.41;6273581;22;44792;-83
2023/09/16 04:26:56;;;;;;;;;14.00;14.00;;;;;21.57;73.21;100229.91;6273709;22;44805;-83
2023/09/16 04:29:21;;;;;;;;;14.67;12.00;;;;;21.48;73.88;100224.91;6171044;23;44700;-84
2023/09/16 04:31:47;;;;;;;;;14.67;12.67;;;;;21.41;73.72;100221.53;6275395;22;46838;-83
2023/09/16 04:34:12;;;;;;;;;15.33;13.00;;;;;21.40;73.81;100218.88;6171294;22;45130;-83
2023/09/16 04:36:40;;;;;;;;;16.33;15.33;;;;;21.35;74.13;100217.22;6276213;22;44746;-84
2023/09/16 04:39:07;;;;;;;;;12.00;11.00;;;;;21.36;74.36;100221.69;6275762;22;44736;-84
2023/09/16 04:41:33;;;;;;;;;12.67;12.67;;;;;21.36;74.20;100216.28;6171839;22;45106;-83
2023/09/16 04:44:00;;;;;;;;;15.33;14.00;;;;;21.35;74.53;100228.03;6263638;22;45458;-80
2023/09/16 04:46:25;;;;;;;;;20.33;15.67;;;;;21.27;74.70;100237.38;6258710;22;45339;-81
2023/09/16 04:48:52;;;;;;;;;14.33;13.67;;;;;21.24;74.89;100222.16;6258819;22;45298;-81
2023/09/16 04:51:18;;;;;;;;;17.67;16.00;;;;;21.25;74.57;100215.81;6258899;22;45401;-81
2023/09/16 04:54:35;;;;;;;;;16.00;13.33;;;;;21.40;74.68;100217.03;6153246;23;45263;-83
2023/09/16 04:57:02;;;;;;;;;13.00;11.67;;;;;21.26;75.02;100220.28;6264107;22;44738;-84
2023/09/16 04:59:31;;;;;;;;;15.67;13.00;;;;;21.16;75.38;100230.56;6174555;22;45214;-85
2023/09/16 05:01:56;;;;;;;;;16.00;13.33;;;;;21.10;74.98;100227.22;6274649;22;44962;-84
2023/09/16 05:04:21;;;;;;;;;15.00;13.33;;;;;21.10;75.70;100225.38;6172578;22;44668;-83
2023/09/16 05:07:31;;;;;;;;;15.67;13.67;;;;;21.23;75.57;100228.53;6261067;22;45650;-82
2023/09/16 05:09:57;;;;;;;;;13.33;13.00;;;;;20.98;76.06;100232.13;6257896;22;45521;-82
2023/09/16 05:12:23;;;;;;;;;13.33;12.67;;;;;20.94;76.37;100232.31;6258370;22;47365;-82
2023/09/16 05:14:49;;;;;;;;;16.67;13.67;;;;;20.94;76.52;100241.28;6258785;22;45439;-82
2023/09/16 05:17:15;;;;;;;;;14.67;13.33;;;;;20.92;76.32;100237.75;6258818;22;45368;-82
2023/09/16 05:22:38;;;;;;;;;15.67;12.67;;;;;20.97;76.62;100241.19;6124621;22;46461;-82
2023/09/16 05:25:07;;;;;;;;;14.33;14.33;;;;;21.01;76.44;100246.50;6217574;22;44669;-80
2023/09/16 05:27:32;;;;;;;;;15.00;15.00;;;;;20.93;76.52;100244.94;6216851;22;45320;-81
2023/09/16 05:29:58;;;;;;;;;13.00;13.00;;;;;20.89;76.82;100251.41;6217799;22;44736;-82
2023/09/16 05:32:23;;;;;;;;;14.33;12.67;;;;;20.89;76.85;100258.63;6190791;22;46003;-82
2023/09/16 05:34:51;;;;;;;;;16.67;14.67;;;;;20.86;76.86;100259.59;6218129;22;44784;-82
2023/09/16 05:37:16;;;;;;;;;16.00;15.33;;;;;20.90;77.35;100255.84;6190676;22;45322;-82
2023/09/16 05:39:42;;;;;;;;;15.33;15.00;;;;;20.83;77.22;100240.81;6191750;22;44724;-82
2023/09/16 05:42:07;;;;;;;;;13.67;12.67;;;;;20.91;77.08;100246.81;6199022;22;46578;-84
2023/09/16 05:44:33;;;;;;;;;15.33;14.00;;;;;20.86;77.23;100258.72;6206922;22;44722;-83
2023/09/16 05:46:58;;;;;;;;;13.33;13.33;;;;;20.86;77.28;100259.59;6209340;22;45153;-82
2023/09/16 05:52:00;;;;;;;;;16.33;15.67;;;;;20.99;77.94;100251.97;6119163;22;46880;-80
2023/09/16 05:54:26;;;;;;;;;13.00;12.33;;;;;20.93;77.96;100254.88;6212499;22;45384;-80
2023/09/16 05:56:52;;;;;;;;;14.00;11.67;;;;;20.91;78.00;100256.75;6189393;22;44669;-81
2023/09/16 05:59:21;;;;;;;;;19.00;16.33;;;;;21.01;77.87;100258.19;6212883;22;45456;-81
2023/09/16 06:01:46;;;;;;;;;13.00;13.00;;;;;21.03;77.75;100255.44;6237360;22;46863;-81
2023/09/16 06:04:12;;;;;;;;;15.67;13.33;;;;;21.09;77.87;100257.91;6238056;22;45717;-82
2023/09/16 06:06:38;;;;;;;;;13.00;12.00;;;;;21.18;77.80;100265.66;6216793;22;45337;-81
2023/09/16 06:09:05;;;;;;;;;12.67;12.00;;;;;21.23;77.05;100263.69;6189446;22;44949;-81
2023/09/16 06:11:31;;;;;;;;;14.33;14.00;;;;;21.40;77.46;100271.13;6212620;22;46950;-81
2023/09/16 06:13:58;;;;;;;;;14.67;13.00;;;;;21.34;76.99;100282.19;6239117;22;45402;-81
2023/09/16 06:16:23;;;;;;;;;16.00;15.33;;;;;21.38;77.15;100282.00;6216479;22;44822;-81
2023/09/16 06:18:49;;;;;;;;;11.67;11.67;;;;;21.42;76.88;100276.50;6215395;22;45873;-81
2023/09/16 06:21:15;;;;;;;;;14.33;14.33;;;;;21.57;76.67;100284.03;6214975;22;45376;-81
2023/09/16 06:23:42;;;;;;;;;15.33;13.33;;;;;21.67;76.87;100273.75;6213721;22;45336;-82
2023/09/16 06:26:09;;;;;;;;;16.00;14.00;;;;;21.74;76.31;100284.28;6216502;22;45608;-82
2023/09/16 06:28:37;;;;;;;;;15.00;14.00;;;;;21.85;76.47;100283.84;6227795;22;44737;-80
2023/09/16 06:31:02;;;;;;;;;12.00;11.67;;;;;21.89;75.95;100284.59;6237056;22;44927;-79
2023/09/16 06:46:23;;;;;;;;;15.00;15.00;;;;;22.29;74.44;100292.00;6100921;22;46962;-83
2023/09/16 06:48:49;;;;;;;;;16.33;16.33;;;;;22.37;74.61;100289.00;6246516;22;44912;-82
2023/09/16 06:51:14;;;;;;;;;16.33;16.00;;;;;22.41;74.57;100301.47;6248049;22;47680;-82
2023/09/16 06:53:39;;;;;;;;;14.67;14.67;;;;;22.44;74.42;100298.63;6249064;22;44696;-82
2023/09/16 06:56:05;;;;;;;;;16.33;15.33;;;;;22.52;73.96;100290.16;6245841;22;44758;-82
2023/09/16 06:58:30;;;;;;;;;15.00;15.00;;;;;22.54;73.65;100282.84;6245724;22;45312;-82
2023/09/16 07:00:56;;;;;;;;;19.00;18.33;;;;;22.57;73.72;100286.31;6245992;22;46046;-82
2023/09/16 07:03:22;;;;;;;;;11.33;11.33;;;;;22.71;73.82;100287.56;6217975;22;45700;-81
2023/09/16 07:05:48;;;;;;;;;16.00;16.00;;;;;22.77;74.01;100280.03;6217689;22;45287;-82
2023/09/16 07:08:17;;;;;;;;;16.67;16.67;;;;;22.76;73.77;100272.84;6218169;22;44854;-82
2023/09/16 07:11:32;;;;;;;;;19.67;12.67;;;;;22.96;73.15;100280.06;6243952;22;45338;-82
2023/09/16 07:13:57;;;;;;;;;21.33;16.33;;;;;22.80;73.20;100273.59;6244273;22;45728;-82
2023/09/16 07:16:36;;;;;;;;;17.00;17.00;;;;;22.93;73.13;100280.22;6246247;22;45429;-82
2023/09/16 07:19:02;;;;;;;;;16.00;16.00;;;;;22.83;72.76;100265.31;6247428;22;45149;-82
2023/09/16 07:21:28;;;;;;;;;18.00;17.00;;;;;22.93;73.33;100269.38;6245362;22;45522;-82
2023/09/16 07:23:55;;;;;;;;;16.67;15.67;;;;;23.01;72.51;100270.88;6264991;22;44634;-83
2023/09/16 07:26:21;;;;;;;;;19.00;19.00;;;;;23.04;72.10;100277.06;6236764;22;44780;-81
2023/09/16 07:28:47;;;;;;;;;21.67;18.00;;;;;23.07;72.49;100273.34;6247470;22;45085;-82
2023/09/16 07:31:12;;;;;;;;;21.67;19.33;;;;;23.17;72.27;100271.97;6248306;22;44989;-82
2023/09/16 07:33:38;;;;;;;;;20.00;18.67;;;;;23.22;71.79;100275.34;6247736;22;44809;-82
2023/09/16 07:39:26;;;;;;;;;20.00;17.00;;;;;23.46;70.99;100278.75;6248718;22;44761;-82
2023/09/16 07:41:52;;;;;;;;;18.33;17.33;;;;;23.53;71.08;100288.38;6248154;22;45039;-82
2023/09/16 07:44:17;;;;;;;;;19.00;18.67;;;;;23.65;70.64;100289.66;6245566;22;44835;-81
2023/09/16 07:46:49;;;;;;;;;21.33;18.00;;;;;23.75;70.33;100285.53;6242691;22;45271;-81
2023/09/16 07:49:21;;;;;;;;;17.33;16.33;;;;;24.01;69.94;100294.28;6243433;22;45233;-81
2023/09/16 07:52:30;;;;;;;;;23.33;20.33;;;;;24.12;69.54;100291.94;6216576;22;46877;-81
2023/09/16 07:54:58;;;;;;;;;20.67;19.67;;;;;24.10;69.21;100296.56;6244084;22;45230;-82
2023/09/16 07:57:24;;;;;;;;;18.33;18.33;;;;;24.12;69.30;100293.78;6217551;22;45383;-82
2023/09/16 07:59:50;;;;;;;;;16.33;16.33;;;;;24.24;69.02;100294.97;6245719;22;45360;-82
2023/09/16 08:02:16;;;;;;;;;18.67;18.67;;;;;24.27;68.26;100294.84;6229708;22;47332;-82
2023/09/16 08:15:05;;;;;;;;;17.67;17.67;;;;;24.33;67.82;100291.81;6258969;22;44774;-82
2023/09/16 08:34:35;;;;;;;;;19.00;19.00;;;;;24.71;66.84;100272.69;6139967;22;46238;-82
2023/09/16 08:37:00;;;;;;;;;19.67;16.67;;;;;24.81;67.42;100289.41;6249920;22;45375;-82
2023/09/16 08:39:25;;;;;;;;;14.67;14.33;;;;;24.89;65.85;100293.47;6222422;22;44829;-81
2023/09/16 08:42:05;;;;;;;;;17.00;17.00;;;;;24.98;65.90;100281.22;6222805;22;45466;-82
2023/09/16 08:44:36;;;;;;;;;16.33;16.33;;;;;25.02;65.97;100285.53;6223205;22;47284;-81
2023/09/16 08:47:09;;;;;;;;;16.00;16.00;;;;;25.09;65.88;100294.28;6249522;22;44792;-82
2023/09/16 08:49:40;;;;;;;;;19.67;18.33;;;;;25.10;66.15;100287.84;6249302;22;44778;-82
2023/09/16 08:52:11;;;;;;;;;21.00;16.00;;;;;25.18;65.04;100290.16;6222402;22;45251;-83
2023/09/16 08:54:41;;;;;;;;;19.67;19.33;;;;;25.14;65.27;100292.16;6248307;22;45154;-83
2023/09/16 08:57:10;;;;;;;;;16.00;16.00;;;;;25.12;65.60;100280.50;6259415;22;44738;-82
2023/09/16 08:59:50;;;;;;;;;15.67;15.67;;;;;25.06;64.61;100287.13;6231889;22;44713;-81
2023/09/16 09:02:15;;;;;;;;;18.00;18.00;;;;;24.99;64.64;100288.44;6339232;22;44774;-83
2023/09/16 09:04:42;;;;;;;;;16.00;16.00;;;;;25.02;65.29;100282.81;6168977;23;46667;-83
2023/09/16 09:07:09;;;;;;;;;16.00;16.00;;;;;25.12;65.64;100288.66;6193041;23;45401;-83
2023/09/16 09:09:34;;;;;;;;;18.00;15.67;;;;;25.13;65.65;100274.09;6194286;22;44875;-82
2023/09/16 09:12:00;;;;;;;;;17.67;16.67;;;;;25.34;65.27;100278.38;6221197;22;44798;-83
2023/09/16 09:14:32;;;;;;;;;15.00;14.33;;;;;25.43;65.27;100284.28;6222063;22;45376;-84
2023/09/16 09:17:02;;;;;;;;;13.00;13.00;;;;;25.54;64.10;100290.03;6193752;23;45788;-83
2023/09/16 09:19:29;;;;;;;;;15.33;15.33;;;;;25.38;63.20;100297.28;6164424;23;44694;-82
2023/09/16 09:21:58;;;;;;;;;16.33;16.33;;;;;25.39;64.18;100297.22;6188893;23;45453;-83
2023/09/16 09:24:24;;;;;;;;;11.00;11.00;;;;;25.45;64.23;100287.81;6187264;23;47201;-81
2023/09/16 09:26:50;;;;;;;;;13.33;13.33;;;;;25.57;64.06;100287.13;6187923;22;45372;-81
2023/09/16 09:29:16;;;;;;;;;16.00;15.00;;;;;25.70;64.34;100285.47;6214990;22;45443;-81
2023/09/16 09:31:41;;;;;;;;;12.00;12.00;;;;;25.81;62.45;100294.91;6216488;22;45354;-81
2023/09/16 09:34:15;;;;;;;;;14.33;13.33;;;;;25.95;62.44;100297.75;6227443;22;45265;-81
2023/09/16 09:36:41;;;;;;;;;20.00;17.00;;;;;25.88;62.90;100296.31;6176011;22;44788;-82
2023/09/16 09:46:52;;;;;;;;;20.67;16.67;;;;;25.90;63.74;100283.53;6204245;22;44896;-81
2023/09/16 09:49:19;;;;;;;;;17.00;17.00;;;;;25.93;63.00;100286.06;6173536;22;44828;-82
2023/09/16 09:51:48;;;;;;;;;16.00;16.00;;;;;26.00;63.48;100284.75;6166304;22;44805;-82
2023/09/16 09:54:17;;;;;;;;;18.00;17.33;;;;;26.03;62.21;100280.97;6191159;22;45306;-81
2023/09/16 10:00:06;;;;;;;;;18.33;16.33;;;;;25.90;62.98;100281.66;6190063;22;44807;-82
2023/09/16 10:02:32;;;;;;;;;16.00;16.00;;;;;25.92;62.64;100278.88;6164683;23;45100;-82
2023/09/16 10:05:01;;;;;;;;;22.00;19.00;;;;;26.06;62.62;100273.50;6163415;22;47064;-81
2023/09/16 10:07:28;;;;;;;;;16.00;16.00;;;;;26.14;62.48;100282.09;6164090;22;45335;-82
2023/09/16 10:09:55;;;;;;;;;17.00;17.00;;;;;26.15;62.48;100272.06;6190825;22;44712;-81
2023/09/16 10:12:22;;;;;;;;;17.00;17.00;;;;;26.33;62.96;100271.00;6191842;22;44685;-81
2023/09/16 10:14:48;;;;;;;;;17.00;15.33;;;;;26.37;61.14;100271.69;6140387;22;46162;-82
2023/09/16 10:17:15;;;;;;;;;20.00;16.67;;;;;26.37;60.59;100270.81;6164267;22;44780;-82
2023/09/16 10:19:42;;;;;;;;;16.33;16.33;;;;;26.37;61.26;100277.16;6192466;22;45307;-82
2023/09/16 10:22:07;;;;;;;;;13.33;13.33;;;;;26.43;61.25;100271.31;6167509;22;45462;-82
2023/09/16 10:24:34;;;;;;;;;16.00;14.00;;;;;26.58;60.81;100271.41;6166863;22;46784;-82
2023/09/16 10:27:08;;;;;;;;;16.33;13.67;;;;;26.78;61.00;100270.19;6165249;22;45287;-82
2023/09/16 10:29:35;;;;;;;;;16.00;16.00;;;;;26.86;60.61;100267.88;6165415;22;44736;-82
2023/09/16 10:32:01;;;;;;;;;14.67;13.67;;;;;27.01;60.71;100266.06;6164329;22;44721;-82
2023/09/16 10:34:27;;;;;;;;;12.00;12.00;;;;;27.24;60.18;100267.38;6140409;22;47839;-82
2023/09/16 10:36:53;;;;;;;;;19.67;16.00;;;;;27.24;59.04;100272.84;6170583;22;45013;-81
2023/09/16 10:39:21;;;;;;;;;13.67;13.67;;;;;27.37;58.75;100279.31;6181541;22;44872;-80
2023/09/16 10:41:48;;;;;;;;;16.67;16.00;;;;;27.44;60.12;100277.91;6199924;22;44754;-82
2023/09/16 10:44:16;;;;;;;;;16.00;15.00;;;;;27.70;59.94;100284.44;6190782;22;44928;-82
2023/09/16 10:46:43;;;;;;;;;18.00;16.00;;;;;27.77;59.17;100281.31;6279055;22;45308;-82
2023/09/16 10:49:09;;;;;;;;;13.00;13.00;;;;;27.88;57.28;100285.13;6344186;22;45369;-82
2023/09/16 10:51:40;;;;;;;;;14.67;14.67;;;;;27.97;58.79;100286.38;6345063;22;45329;-82
2023/09/16 10:54:26;;;;;;;;;14.33;14.33;;;;;28.18;57.65;100285.94;6344547;22;45490;-82
2023/09/16 10:56:57;;;;;;;;;16.00;13.00;;;;;28.24;57.90;100274.59;6342451;22;45370;-82
2023/09/16 10:59:28;;;;;;;;;13.33;12.67;;;;;28.30;56.72;100274.19;6345086;22;44952;-81
2023/09/16 11:02:17;;;;;;;;;14.67;14.67;;;;;28.39;55.97;100273.56;6352870;22;45412;-82
2023/09/16 11:04:43;;;;;;;;;13.33;12.33;;;;;28.24;56.88;100283.69;6364045;22;45473;-83
2023/09/16 11:07:10;;;;;;;;;15.00;15.00;;;;;28.36;56.45;100279.25;6363557;22;44810;-83
2023/09/16 11:09:36;;;;;;;;;15.67;13.00;;;;;28.36;56.07;100273.78;6363995;22;44676;-83
2023/09/16 11:12:01;;;;;;;;;13.33;11.67;;;;;28.38;55.81;100266.34;6363547;22;44725;-84
2023/09/16 11:14:27;;;;;;;;;13.33;12.00;;;;;28.48;55.71;100278.41;6362308;22;47178;-84
2023/09/16 11:16:53;;;;;;;;;15.67;14.67;;;;;28.43;55.36;100275.09;6328803;22;45357;-82
2023/09/16 11:19:25;;;;;;;;;14.00;13.00;;;;;28.57;55.95;100276.94;6344463;22;45344;-81
2023/09/16 11:21:54;;;;;;;;;12.33;11.00;;;;;28.69;56.00;100275.22;6345169;22;45341;-82
2023/09/16 11:24:20;;;;;;;;;12.00;12.00;;;;;28.72;53.35;100280.44;6343154;22;47158;-82
2023/09/16 11:26:51;;;;;;;;;15.33;12.00;;;;;28.85;54.55;100280.50;6342756;22;45270;-81
2023/09/16 11:29:25;;;;;;;;;11.67;11.67;;;;;28.82;54.80;100267.88;6344872;22;44770;-82
2023/09/16 11:31:54;;;;;;;;;14.00;13.00;;;;;28.87;55.01;100279.41;6343849;22;45571;-81
2023/09/16 11:34:22;;;;;;;;;15.00;15.00;;;;;28.99;55.72;100274.06;6316427;22;48025;-81
2023/09/16 11:36:51;;;;;;;;;13.67;12.67;;;;;29.11;54.02;100265.88;6343783;22;44838;-82
2023/09/16 11:42:39;;;;;;;;;13.67;12.00;;;;;29.21;53.46;100277.06;6344982;22;44760;-82
2023/09/16 11:45:08;;;;;;;;;11.33;11.33;;;;;29.27;53.64;100271.13;6360695;22;46624;-80
2023/09/16 11:47:34;;;;;;;;;13.00;13.00;;;;;29.22;53.84;100267.84;6331284;22;44755;-82
2023/09/16 11:50:06;;;;;;;;;11.33;10.00;;;;;29.36;54.33;100269.59;6362578;22;44786;-83
2023/09/16 11:52:31;;;;;;;;;13.67;13.33;;;;;29.52;53.38;100263.88;6362458;22;44704;-81
2023/09/16 11:54:56;;;;;;;;;11.33;11.33;;;;;29.63;53.61;100266.72;6359848;22;45101;-83
2023/09/16 11:57:22;;;;;;;;;12.33;11.00;;;;;29.87;51.78;100274.13;6362996;22;44687;-78
2023/09/16 11:59:50;;;;;;;;;11.33;10.33;;;;;30.09;50.62;100277.03;6362642;22;44693;-80
2023/09/16 12:02:16;;;;;;;;;12.00;10.67;;;;;29.96;51.21;100273.47;6351969;22;44806;-81
2023/09/16 12:04:44;;;;;;;;;12.33;12.33;;;;;30.20;51.56;100280.84;6345020;22;44970;-82
2023/09/16 12:07:11;;;;;;;;;9.67;9.67;;;;;29.89;51.06;100272.16;6343431;22;45440;-82
2023/09/16 12:09:36;;;;;;;;;12.67;12.00;;;;;29.96;50.92;100278.94;6313616;22;45394;-82
2023/09/16 12:12:05;;;;;;;;;13.00;13.00;;;;;29.89;51.70;100277.66;6342558;22;45786;-81
2023/09/16 12:14:31;;;;;;;;;9.33;9.33;;;;;29.97;51.95;100275.22;6342609;22;45521;-81
2023/09/16 12:16:57;;;;;;;;;12.00;10.67;;;;;30.16;50.99;100276.56;6340825;22;45285;-82
2023/09/16 12:19:24;;;;;;;;;12.33;11.33;;;;;29.86;51.14;100278.75;6342776;22;45301;-82
2023/09/16 12:21:50;;;;;;;;;14.00;12.67;;;;;29.69;51.75;100277.25;6357276;22;45516;-82
2023/09/16 12:24:23;;;;;;;;;13.33;12.00;;;;;29.72;51.58;100287.13;6363281;22;46851;-82
2023/09/16 12:26:49;;;;;;;;;9.00;9.00;;;;;29.52;51.82;100277.59;6336257;22;44926;-83
2023/09/16 12:29:14;;;;;;;;;9.67;9.67;;;;;29.57;52.00;100282.72;6363780;22;44743;-83
2023/09/16 12:31:42;;;;;;;;;10.00;10.00;;;;;29.62;52.80;100275.91;6238573;22;44786;-82
2023/09/16 12:34:22;;;;;;;;;12.50;10.50;;;;;29.91;52.42;100276.56;6206245;22;47484;-84
2023/09/16 12:36:49;;;;;;;;;12.25;10.75;;;;;30.08;52.33;100274.41;6229610;22;44684;-82
2023/09/16 12:39:15;;;;;;;;;15.00;14.00;;;;;30.04;51.95;100242.75;6230616;22;44718;-84